Stillwater, OK (74075)

06:18 CST le 04 décembre 2016 (GMT -0600)
Asco Aerospace USA LLC Stillwater Industrial Park | | Change Station

Alt. 965 ft 36.15 °N, 97.05 °W | Updated 6 minutes ago

Overcast
Couvert
43.4 ° F
Paraît 43 ° F
N
3.0
Vent Variable Vent de NO
Gusts 5.0 mph

Aujourd'hui
Haut(e) -- | Bas -- ° F
--% Risque de précip.
Hier
Haut(e) -- | Bas -- ° F
Precip. -- pouce
Pression 30.03 pouce
Visibilité 6.0 Miles terrestres
Nuages Couvert 700 ft
Refroidissement éolien 43 ° F
Point de rosée 42 ° F
Humidité 96%
Précipitations 0.07 pouce
Profondeur de la couche neigeuse Non disponible.
7:23 AM 5:13 PM
Lune montante, 22% visible
METAR KSWO 041153Z AUTO 30003KT 6SM BR OVC007 06/06 A3003 RMK AO2 RAE53 CIG 003V010 SLP168 P0001 60008 70021 T00610061 10067 20061 58001
Pression 30.03 pouce
Visibilité 6.0 Miles terrestres
Nuages Couvert 700 ft
Refroidissement éolien 43 ° F
Point de rosée 42 ° F
Humidité 96%
Précipitations 0.07 pouce
Profondeur de la couche neigeuse Non disponible.
7:23 AM 5:13 PM
Lune montante, 22% visible
METAR KSWO 041153Z AUTO 30003KT 6SM BR OVC007 06/06 A3003 RMK AO2 RAE53 CIG 003V010 SLP168 P0001 60008 70021 T00610061 10067 20061 58001

10-Day Weather Forecast

Almanac

Astronomie

Dec. 04, 2016 Lever Coucher
Temps réel
Crépuscule civil
Crépuscule nautique
Crépuscule astronomique
Lune
Durée de lumière visible
Longueur du jour
Tomorrow will be .
, % of the Moon is Illuminated

Extrêmes aujourd'hui

State Highs State Lows

Community

WunderPhotos

Upload Photos

1,955,591 Photos téléchargées !

WunderBlog® & News

Nearby

Qualité de l'air

  Qualité de l'air Indice de la qualité de l'air Polluant
Not available.

Épaisseur de neige

Station Depth Altitude

Activité sismique

Ville Distance Mag. Time & Date
Minimum magnitude displayed is 2.5.

Températures des eaux côtières

Lieu Température

Stations

Stations météo à proximité

Emplacement de la station Température Refroidissement éolien Point de rosée Humidité Vent Precip. Alt. Mise à jour Type
                   

Watches & Warnings

There are currently no watches in effect.